Hlavní strana
METAR-TAF:

METAR-TAF

Letiště :

Lee Gilmer Memorial Airport

Gainesville, Georgie, Spojené státy americké

zeměpisná šířka: 34-16-19N, zeměpisná délka: 083-49-49W, výška: 388 m

Aktuální stav počasí

Zpráva byla vytvořena před 1 hodinou a 7 minutami, v 16:53 UTC
Východní vítr 8 kt
Teplota 8°C
Vlhkost vzduchu 100%
Tlak 1021 hPa
Viditelnost: 16.1 km
Skoro jasno ve výšce 800 ft
Polojasno ve výšce 2300 ft
Zataženo ve výšce 4400 ft

METAR: KGVL 151653Z AUTO 08008KT 10SM FEW008 SCT023 OVC044 08/08 A3015 RMK AO2 RAB07E46 SLP213 P0001 T00780078

Čas: 13:00 (18:00 UTC)


TAF: chybějící

Stav a předpovědi počasí z více než 4 000 letišť (zprávy METAR a TAF).

Červené a žluté tečky na mapě představují dostupné meteorologické stanice.

Když kurzor umístíte na tečku, zobrazí se název stanice.

Pak kliknutím zobrazíte stav a předpověď počasí.

Chcete-li změnit mapu, kliknutím na zelené tlačítko se znaménkem +mapu přiblížíte, kliknutím na zelené tlačítko se znaménkem – mapu oddálíte a kliknutím na zelené šipky přejdete na sousední mapy.


METAR-TAF: